x

Bodega Bay - 48nm Nnw Of San Francisco, Ca (46013) Weather Station

6:20am - Sun 25th Feb 2018 All times are PST. -8 hours from GMT.

  • Wind
    20mph, 22mph gusts
  • Sea Temp 49°f
  • Air Temp 48°f
  • Sea Pressure 1027.9mb
  • Bodega Bay - 48nm Nnw Of San Francisco, Ca
  • Bodega Bay - 48nm Nnw Of San Francisco, Ca

More Historic Weather Station data

Upgrade to MSW Pro to gain access to the past 30 days of data for over 8000 Wavebouys and Weather Stations around the globe.

Join

Comparision Forecast

View Surf forecast
   
Sun 02/25 6:20am  -   -   -  20 22 mph 1027.9mb 49f 48f
6:10am  -   -   -  18 22 mph 1027.8mb 49f 48f
6:00am  -   -   -  18 22 mph 1027.9mb 49f 48f
5:50am 7ft 15s 6s 16 20 mph 1028mb 49f 48f
5:40am 7ft  -  6s 16 20 mph 1028mb 49f 48f
5:30am  -   -   -  18 22 mph 1027.9mb 49f 48f
5:20am  -   -   -  20 25 mph 1027.8mb 49f 48f
5:10am  -   -   -  20 25 mph 1027.8mb 49f 48f
5:00am  -   -   -  20 25 mph 1027.8mb 49f 48f
4:50am 7ft 14s 6s 20 22 mph 1027.7mb 49f 48f
4:40am 7ft  -  6s 20 27 mph 1027.6mb 49f 48f
4:30am  -   -   -  22 27 mph 1027.6mb 49f 48f
4:20am  -   -   -  22 27 mph 1027.7mb 49f 48f
4:10am  -   -   -  25 29 mph 1027.6mb 49f 48f
4:00am  -   -   -  25 31 mph 1027.5mb 49f -
3:50am 7ft 14s 6s 25 29 mph 1027.5mb 49f 48f
3:40am  -   -   -  22 29 mph 1027.5mb 49f -
3:30am  -   -   -  25 29 mph 1027.6mb 49f 48f
3:20am  -   -   -  25 29 mph 1027.6mb 49f 48f
3:10am  -   -   -  22 27 mph 1027.6mb - 48f
3:00am  -   -   -  22 27 mph 1027.7mb 49f 48f
2:50am 8ft 14s 6s 25 29 mph 1027.6mb 49f 49f
2:40am 8ft  -  6s 25 31 mph 1027.6mb 49f 49f
2:30am  -   -   -  25 31 mph 1027.7mb 49f 48f
2:20am  -   -   -  25 29 mph 1027.8mb - 49f
2:10am  -   -   -  25 31 mph 1027.7mb 49f 49f
2:00am  -   -   -  25 29 mph 1027.7mb 49f 49f
1:50am 8ft 15s 6s 25 31 mph 1027.8mb 49f 49f
1:40am  -   -   -  25 31 mph 1027.8mb 49f 49f
1:30am  -   -   -  25 31 mph 1027.9mb 49f 49f
1:20am  -   -   -  25 31 mph 1027.9mb 49f 49f
1:10am  -   -   -  25 31 mph 1028mb - 49f
1:00am  -   -   -  27 31 mph 1028.1mb 49f 49f
12:50am 8ft 14s 6s 27 34 mph 1028mb 49f 49f
12:40am  -   -   -  27 31 mph 1027.8mb 49f 49f
12:30am  -   -   -  27 34 mph 1028mb 49f 49f
12:20am  -   -   -  25 31 mph 1028.1mb 49f 49f
12:10am  -   -   -  27 34 mph 1028.1mb 49f 49f
12:00am  -   -   -  27 36 mph 1028mb 49f 49f
Sat 02/24 11:50pm 7.5ft 7s 6s 29 40 mph 1027.9mb 49f 49f
11:40pm 7.5ft  -  6s 31 38 mph 1028.1mb 49f 49f
11:30pm  -   -   -  29 36 mph 1028.1mb 49f 49f
11:20pm  -   -   -  29 34 mph 1028.2mb 49f 49f
11:10pm  -   -   -  29 38 mph 1028.1mb 49f 49f
11:00pm  -   -   -  29 36 mph 1027.9mb 49f 49f
10:50pm 8ft 7s 6s 31 38 mph 1027.9mb 49f 50f
10:40pm 8ft  -  6s 29 38 mph 1027.9mb 49f 50f
10:30pm  -   -   -  29 36 mph 1028mb 49f 50f
10:20pm  -   -   -  29 36 mph 1027.9mb 49f 50f
10:10pm  -   -   -  27 36 mph 1028mb 49f 50f
10:00pm  -   -   -  29 36 mph 1028mb 49f 50f
9:50pm 8ft 7s 6s 29 36 mph 1028.2mb 49f 50f
9:40pm 8ft  -  6s 27 34 mph 1028.2mb 49f 50f
9:30pm  -   -   -  29 36 mph 1028.1mb 49f 50f
9:20pm  -   -   -  27 36 mph 1028mb 49f 50f
9:10pm  -   -   -  27 34 mph 1028.2mb 49f 50f
9:00pm  -   -   -  27 36 mph 1028.2mb 49f 50f
8:50pm 8ft 6s 6s 29 36 mph 1028mb 49f 50f
8:40pm 8ft  -  6s 29 38 mph 1028mb 49f 50f
8:30pm  -   -   -  29 36 mph 1027.8mb 49f 50f
8:20pm  -   -   -  27 38 mph 1027.8mb 49f 50f
8:10pm  -   -   -  29 36 mph 1027.8mb 49f 50f
8:00pm  -   -   -  29 36 mph 1027.9mb 49f 50f
7:50pm 7.5ft  -  6s 29 38 mph 1027.8mb 49f -
7:40pm  -   -   -  27 36 mph 1027.8mb 49f 50f
7:30pm  -   -   -  27 34 mph 1027.8mb 49f 50f
7:20pm  -   -   -  27 36 mph 1027.7mb 49f 50f
7:10pm  -   -   -  27 36 mph 1027.6mb 49f 50f
7:00pm  -   -   -  29 36 mph 1027.4mb 49f 50f
6:50pm 6.5ft 15s 5s 29 36 mph 1027.3mb 49f 50f
6:40pm  -   -   -  29 36 mph 1027.2mb 49f 50f
6:30pm  -   -   -  29 36 mph 1027.4mb 49f 50f
6:20pm  -   -   -  29 34 mph 1027.3mb 49f 50f
6:10pm  -   -   -  29 36 mph 1027.3mb 49f 50f
6:00pm  -   -   -  25 29 mph 1027.4mb 49f -
5:50pm 6ft 13s 6s 22 31 mph 1027.5mb 49f 50f
5:40pm 6ft  -  6s 20 25 mph 1027.7mb 49f 50f
5:30pm  -   -   -  20 29 mph 1027.7mb 49f 50f
5:20pm  -   -   -  22 27 mph 1027.8mb 49f 50f
5:10pm  -   -   -  20 25 mph 1027.7mb 49f 50f
5:00pm  -   -   -  22 29 mph 1027.8mb - 50f
4:50pm 6ft 14s 6s 25 31 mph 1027.8mb 49f 50f
4:40pm 6ft  -  6s 22 31 mph 1027.8mb 49f 51f
4:30pm  -   -   -  25 31 mph 1027.7mb 49f 51f
4:20pm  -   -   -  22 29 mph 1027.8mb 49f 51f
4:10pm  -   -   -  20 27 mph 1027.9mb 49f 51f
4:00pm  -   -   -  18 22 mph 1027.9mb 49f 51f
3:50pm 5ft 14s 6s 16 20 mph 1028.1mb 49f 51f
3:40pm 5ft  -  6s 18 22 mph 1028.1mb 49f 51f
3:20pm  -   -   -  18 22 mph 1028.3mb 49f 50f
3:10pm  -   -   -  18 22 mph 1028.4mb 49f 50f
3:00pm  -   -   -  18 22 mph 1028.5mb 49f 50f
2:50pm 5ft 14s 6s 18 20 mph 1028.5mb 49f 50f
2:40pm 5ft  -  6s 18 20 mph 1028.5mb 49f 50f
2:30pm  -   -   -  18 22 mph 1028.5mb - 50f
2:20pm  -   -   -  18 22 mph 1028.6mb - 50f
2:10pm  -   -   -  18 22 mph 1028.8mb 49f 50f
2:00pm  -   -   -  18 22 mph 1028.9mb 49f 50f
1:50pm 4.5ft 15s 6s 18 22 mph 1028.9mb 49f 50f
1:40pm  -   -   -  18 20 mph 1029.1mb 49f 50f
1:30pm  -   -   -  18 22 mph 1029.1mb 49f 49f
1:20pm  -   -   -  16 22 mph 1029.2mb 49f 49f
1:10pm  -   -   -  18 22 mph 1029.4mb 49f 49f
1:00pm  -   -   -  18 25 mph 1029.7mb 49f 49f
12:50pm 4.5ft 15s 7s 16 25 mph 1029.8mb 49f 49f
12:40pm 4.5ft  -  7s 9 13 mph 1030mb 49f 49f
12:30pm  -   -   -  9 13 mph 1030mb - 49f
12:20pm  -   -   -  9 11 mph 1030.2mb 49f 48f
12:10pm  -   -   -  11 13 mph 1030.4mb 49f 48f
12:00pm  -   -   -  11 13 mph 1030.5mb 49f 48f
11:50am 5.5ft 15s 7s 13 18 mph 1030.6mb 49f 49f
11:40am  -   -   -  16 18 mph 1030.8mb 49f 49f
11:30am  -   -   -  11 16 mph 1030.8mb - 49f
11:20am  -   -   -  13 16 mph 1030.9mb 49f 49f
11:10am  -   -   -  11 16 mph 1030.9mb - 49f
11:00am  -   -   -  13 16 mph 1030.9mb - 49f
10:50am 6ft 14s 7s 13 16 mph 1030.9mb 49f 49f
10:40am 6ft  -  7s 13 16 mph 1030.9mb 49f 49f
10:30am  -   -   -  13 16 mph 1031mb 49f 49f
10:20am  -   -   -  11 13 mph 1031mb 49f 49f
10:10am  -   -   -  13 18 mph 1031mb - 49f
10:00am  -   -   -  13 16 mph 1031.1mb 49f -
9:50am 6ft 15s 6s 13 16 mph 1031.2mb 49f 49f
9:40am  -   -   -  13 16 mph 1031mb 49f 49f
9:30am  -   -   -  16 18 mph 1030.9mb 49f 49f
9:20am  -   -   -  16 20 mph 1031mb 49f 49f
9:10am  -   -   -  16 20 mph 1030.9mb 49f 49f
9:00am  -   -   -  18 22 mph 1030.8mb 49f -
8:50am 7ft 15s 6s 20 25 mph 1030.9mb 49f 49f
8:40am 7ft  -  6s 20 25 mph 1030.8mb 49f 49f
8:30am  -   -   -  20 25 mph 1030.8mb 49f -
8:20am  -   -   -  22 29 mph 1030.6mb 49f 48f
8:10am  -   -   -  25 29 mph 1030.4mb 49f 49f
8:00am  -   -   -  25 29 mph 1030.4mb 49f 49f
7:50am 7.5ft 15s 6s 25 31 mph 1030.3mb - 48f
7:40am 7.5ft  -  6s 25 29 mph 1030.1mb 49f 48f
7:30am  -   -   -  25 31 mph 1030mb 49f 48f
7:20am  -   -   -  25 29 mph 1029.9mb 49f 48f
7:10am  -   -   -  25 29 mph 1029.9mb 49f 48f
7:00am  -   -   -  22 27 mph 1029.9mb 49f 48f
6:50am 8ft 14s 6s 25 29 mph 1029.8mb 49f 48f
6:40am 8ft  -  6s 25 31 mph 1029.7mb 49f 48f
6:30am  -   -   -  27 31 mph 1029.6mb 49f 48f
6:20am  -   -   -  25 31 mph 1029.6mb 49f 48f
6:10am  -   -   -  25 31 mph 1029.6mb 49f 48f
6:00am  -   -   -  25 31 mph 1029.6mb 49f 48f
5:50am 8ft 15s 6s 25 34 mph 1029.6mb 49f 48f
5:40am 8ft  -  6s 25 34 mph 1029.5mb 49f 48f
5:30am  -   -   -  25 31 mph 1029.4mb 49f 48f
5:20am  -   -   -  25 34 mph 1029.5mb 49f 48f
5:10am  -   -   -  27 34 mph 1029.5mb 49f 48f
5:00am  -   -   -  27 31 mph 1029.5mb 49f 47f
4:50am 8ft 14s 6s 27 34 mph 1029.5mb 49f 47f
4:40am  -   -   -  25 34 mph 1029.4mb 49f 48f
4:30am  -   -   -  29 34 mph 1029.5mb 49f 47f
4:20am  -   -   -  27 36 mph 1029.3mb 49f 48f
4:10am  -   -   -  29 36 mph 1029.4mb 49f 47f
4:00am  -   -   -  29 34 mph 1029.3mb 49f 47f
3:50am 7.5ft 15s 6s 29 36 mph 1029.4mb 49f 47f
3:40am 7.5ft  -  6s 27 34 mph 1029.4mb 49f 47f
3:30am  -   -   -  27 34 mph 1029.4mb 49f 47f
3:20am  -   -   -  27 34 mph 1029.4mb 49f 47f
3:10am  -   -   -  25 31 mph 1029.5mb 49f 47f
3:00am  -   -   -  25 31 mph 1029.7mb 49f 47f
2:50am 8ft 15s 6s 25 34 mph 1029.7mb 49f 47f
2:40am 8ft  -  6s 27 31 mph 1029.7mb 49f 47f
2:30am  -   -   -  27 34 mph 1029.7mb 49f 47f
2:20am  -   -   -  27 31 mph 1029.7mb 49f 47f
2:10am  -   -   -  25 31 mph 1029.7mb 49f 47f
2:00am  -   -   -  27 34 mph 1029.7mb 49f 47f
1:50am 9ft 15s 7s 25 34 mph 1029.6mb 49f 48f
1:40am  -   -   -  25 29 mph 1029.8mb 49f 47f
1:30am  -   -   -  25 31 mph 1029.9mb 49f 48f
1:20am  -   -   -  27 34 mph 1029.8mb 49f 48f
1:10am  -   -   -  27 31 mph 1029.8mb 49f 48f
1:00am  -   -   -  27 31 mph 1029.8mb 49f 48f
12:50am 9ft 15s 6s 27 31 mph 1029.8mb 49f 48f
12:40am 9ft  -  6s 27 34 mph 1029.9mb 49f 48f
12:30am  -   -   -  27 34 mph 1029.9mb 49f 48f
12:20am  -   -   -  27 34 mph 1029.9mb 49f 48f
12:10am  -   -   -  27 34 mph 1029.8mb 49f 48f
12:00am  -   -   -  27 34 mph 1029.8mb 49f 48f
Fri 02/23 11:50pm 8.5ft 15s 6s 27 34 mph 1029.7mb 49f 48f
11:40pm  -   -   -  27 31 mph 1029.8mb 49f 48f
11:30pm  -   -   -  27 31 mph 1029.8mb 49f 48f
11:20pm  -   -   -  25 31 mph 1029.8mb 49f 48f
11:10pm  -   -   -  25 31 mph 1029.7mb 49f 48f
11:00pm  -   -   -  25 29 mph 1029.8mb 49f -
10:50pm 8.5ft 15s 7s 22 27 mph 1029.8mb 49f 48f
10:40pm 8.5ft  -  7s 20 27 mph 1029.8mb 49f 48f
10:30pm  -   -   -  22 27 mph 1029.8mb 49f 48f
10:20pm  -   -   -  25 27 mph 1029.8mb 49f 48f
10:10pm  -   -   -  25 29 mph 1029.8mb 49f 48f
10:00pm  -   -   -  25 29 mph 1029.8mb 49f 48f
9:50pm 9ft  -  6s 22 29 mph 1029.7mb - 48f
9:40pm 9ft 16s 6s  -  mph - 49f -
9:30pm  -   -   -  25 31 mph 1029.7mb 49f 48f
9:20pm  -   -   -  25 31 mph 1029.6mb 49f 48f
9:10pm  -   -   -  27 34 mph 1029.8mb 49f 48f
9:00pm  -   -   -  25 31 mph 1029.5mb 49f 48f
8:50pm 9.5ft 15s 7s 25 31 mph 1029.5mb 49f 48f
8:40pm  -   -   -  25 31 mph 1029.5mb 49f 48f
8:30pm  -   -   -  27 31 mph 1029.4mb 49f 49f
8:20pm  -   -   -  27 34 mph 1029.4mb 49f 48f
8:10pm  -   -   -  27 31 mph 1029.4mb 49f 48f
8:00pm  -   -   -  27 34 mph 1029.2mb 49f 48f
7:50pm 9ft 16s 6s 25 31 mph 1029.2mb 49f 48f
7:40pm 9ft  -  6s 27 31 mph 1029.3mb 50f 49f
7:30pm  -   -   -  27 31 mph 1029.2mb 50f 48f
7:20pm  -   -   -  27 34 mph 1029.1mb 50f -
7:10pm  -   -   -  27 34 mph 1029.3mb - 48f
7:00pm  -   -   -  27 34 mph 1029.2mb 50f 48f
6:50pm 9.5ft 8s 6s 25 31 mph 1029.3mb 50f 49f
6:40pm  -   -   -  25 31 mph 1029.3mb 50f 49f
6:30pm  -   -   -  25 31 mph 1029.2mb 50f 48f
6:20pm  -   -   -  25 29 mph 1029.2mb 50f 48f
6:10pm  -   -   -  25 31 mph 1029.2mb 50f 48f
6:00pm  -   -   -  22 31 mph 1029.1mb 50f 48f
5:50pm 9.5ft 16s 6s 25 29 mph 1029.1mb 50f 48f
5:40pm  -   -   -  22 29 mph 1029mb 50f 48f
5:30pm  -   -   -  22 29 mph 1028.9mb 50f 48f
5:20pm  -   -   -  25 29 mph 1028.9mb 50f 48f
5:10pm  -   -   -  22 29 mph 1029mb 50f 48f
5:00pm  -   -   -  25 29 mph 1028.9mb - 48f
4:50pm 9ft 16s 6s 20 29 mph 1029mb 50f 48f
4:40pm  -   -   -  22 27 mph 1028.9mb 50f 48f
4:30pm  -   -   -  20 25 mph 1029.1mb 50f 48f
4:20pm  -   -   -  20 27 mph 1029.1mb 50f 48f
4:10pm  -   -   -  20 27 mph 1029.1mb 50f 47f
4:00pm  -   -   -  22 27 mph 1029mb 50f 47f
3:50pm 9.5ft 8s 7s 22 27 mph 1029.2mb 50f 47f
3:40pm  -   -   -  22 27 mph 1029.2mb 50f 47f
3:20pm  -   -   -  22 29 mph 1029.2mb 50f 47f
3:10pm  -   -   -  22 27 mph 1029.2mb 50f 47f
3:00pm  -   -   -  22 27 mph 1029.3mb 50f 47f
2:50pm 9ft 16s 7s 22 27 mph 1029.2mb 50f 47f
2:40pm 9ft  -  7s 22 27 mph 1029.2mb 50f 47f
2:30pm  -   -   -  22 27 mph 1029.2mb - 47f
2:20pm  -   -   -  20 27 mph 1029.3mb 50f 47f
2:10pm  -   -   -  22 27 mph 1029.2mb 50f 47f
2:00pm  -   -   -  22 29 mph 1029.3mb 50f 47f
1:50pm 8.5ft 10s 7s 20 25 mph 1029.3mb 50f 47f
1:40pm  -   -   -  20 25 mph 1029.3mb 50f 47f
1:30pm  -   -   -  20 25 mph 1029.4mb 50f 47f
1:20pm  -   -   -  18 22 mph 1029.6mb 50f 47f
1:10pm  -   -   -  16 20 mph 1029.5mb 50f 47f
1:00pm  -   -   -  16 22 mph 1029.7mb 50f 46f
12:50pm  -   -   -  18 20 mph 1029.7mb 50f 46f
12:40pm  -   -   -  16 22 mph 1029.7mb 50f 46f
12:30pm  -   -   -  18 20 mph 1029.9mb 50f 46f
12:20pm  -   -   -  16 20 mph 1030.1mb 50f 46f
12:10pm  -   -   -  16 22 mph 1030.3mb 50f 46f
12:00pm  -   -   -  16 20 mph 1030.3mb 50f 46f
11:50am 8ft 16s 7s 16 20 mph 1030.4mb 50f 45f
11:40am  -   -   -  16 18 mph 1030.6mb 50f 45f
11:30am  -   -   -  16 20 mph 1030.6mb 50f 45f
11:20am  -   -   -  16 22 mph 1030.6mb 50f 45f
11:10am  -   -   -  16 20 mph 1030.4mb 50f 45f
11:00am  -   -   -  16 18 mph 1030.6mb 50f 44f
10:50am 8.5ft 10s 7s 16 20 mph 1030.5mb - 44f
10:40am 8.5ft  -  7s 16 20 mph 1030.6mb - 44f
10:30am  -   -   -  16 22 mph 1030.7mb 50f 44f
10:20am  -   -   -  20 25 mph 1030.5mb 50f 44f
10:10am  -   -   -  20 25 mph 1030.4mb - 44f
10:00am  -   -   -  18 25 mph 1030.4mb 50f 44f
9:50am 9ft 16s 7s 22 29 mph 1030.2mb 50f 44f
9:40am 9ft  -  7s 22 27 mph 1030.1mb 50f 44f
9:30am  -   -   -  20 25 mph 1030mb 50f 44f
9:20am  -   -   -  18 22 mph 1030.1mb 50f 44f
9:10am  -   -   -  18 22 mph 1030.1mb 50f 44f
9:00am  -   -   -  20 27 mph 1029.8mb 50f 44f
8:50am 10ft 11s 7s 22 27 mph 1029.8mb 50f 44f
8:40am  -   -   -  22 27 mph 1029.4mb 50f 44f
8:30am  -   -   -  22 29 mph 1029.4mb 50f 44f
8:20am  -   -   -  25 31 mph 1029mb 50f 44f
8:10am  -   -   -  25 29 mph 1029mb 50f 44f
8:00am  -   -   -  25 31 mph 1029.1mb - 44f
7:50am 10ft 10s 7s 22 29 mph 1029mb 50f 44f
7:40am  -   -   -  22 27 mph 1028.8mb 50f 44f
7:30am  -   -   -  22 29 mph 1028.5mb 50f 44f
7:20am  -   -   -  25 31 mph 1028.5mb 50f 44f
7:10am  -   -   -  25 29 mph 1028.5mb 50f 44f
7:00am  -   -   -  25 29 mph 1028.3mb 50f 44f
6:50am 11ft 10s 7s 27 31 mph 1028.1mb 50f 44f
6:40am  -   -   -  27 31 mph 1027.7mb 50f 44f
6:30am  -   -   -  27 31 mph 1027.9mb 50f 44f
6:20am  -   -   -  27 31 mph 1027.9mb 50f 44f
6:10am  -   -   -  27 34 mph 1027.6mb 50f 44f
6:00am  -   -   -  27 34 mph 1027.5mb 50f 44f
5:50am 10.5ft 10s 7s 27 34 mph 1027.4mb 50f 44f
5:40am 10.5ft  -  7s 29 36 mph 1027.2mb 50f 44f
5:30am  -   -   -  29 34 mph 1027.2mb 50f 44f
5:20am  -   -   -  27 34 mph 1027.1mb 50f 44f
5:10am  -   -   -  27 31 mph 1027.1mb 50f 44f
5:00am  -   -   -  27 31 mph 1027mb 50f -
4:50am 12ft 10s 7s 25 31 mph 1026.9mb 50f 44f
4:40am 12ft  -  7s 25 31 mph 1027mb 50f 45f
4:30am  -   -   -  27 34 mph 1026.6mb 50f 45f
4:20am  -   -   -  29 36 mph 1026.5mb 50f 45f
4:10am  -   -   -  29 40 mph 1026.4mb 50f 45f
4:00am  -   -   -  34 40 mph 1026.3mb 50f 45f
3:50am 9.5ft 11s 6s 31 40 mph 1026.2mb 50f 45f
3:40am 9.5ft  -  6s 31 40 mph 1026.2mb 50f 45f
3:30am  -   -   -  31 40 mph 1026.1mb 50f 45f
3:20am  -   -   -  31 40 mph 1026mb 50f 45f
3:10am  -   -   -  31 40 mph 1026mb - 46f
3:00am  -   -   -  31 38 mph 1026.1mb 50f 46f
2:50am 10ft 9s 6s 29 38 mph 1026.1mb 50f 46f
2:40am 10ft  -  6s 29 36 mph 1026.2mb 50f 46f
2:30am  -   -   -  29 38 mph 1026.2mb 50f 46f
2:20am  -   -   -  27 34 mph 1026.2mb 50f 46f
2:10am  -   -   -  25 31 mph 1026.2mb 50f 46f
2:00am  -   -   -  27 36 mph 1026.1mb 50f 46f
1:50am 10.5ft 10s  -  27 31 mph 1026.2mb - 46f
1:40am  -   -   -  27 34 mph 1026.2mb 50f 46f
1:30am  -   -   -  27 34 mph 1026.1mb 50f 46f
1:20am  -   -   -  27 31 mph 1026mb 50f 46f
1:10am  -   -   -  29 36 mph 1026.1mb 50f 46f
1:00am  -   -   -  27 34 mph 1026.1mb 50f 46f
12:50am 10ft 10s 7s 27 36 mph 1026mb 50f 46f
12:40am  -   -   -  29 34 mph 1025.9mb 51f 46f
12:30am  -   -   -  29 36 mph 1025.9mb 51f 46f
12:20am  -   -   -  29 36 mph 1025.8mb 51f 47f
12:10am  -   -   -  29 36 mph 1025.8mb 51f 47f
12:00am  -   -   -  29 36 mph 1025.8mb 51f 47f
Thu 02/22 11:50pm 9.5ft 9s 6s 29 36 mph 1025.6mb 51f 47f
11:40pm 9.5ft  -  6s 29 36 mph 1025.5mb 51f 47f
11:30pm  -   -   -  29 38 mph 1025.4mb 51f 47f
11:20pm  -   -   -  29 38 mph 1025.5mb 51f 47f
11:10pm  -   -   -  29 36 mph 1025.4mb 51f 47f
11:00pm  -   -   -  29 40 mph 1025.4mb 51f 47f
10:50pm 9ft 10s 6s 31 40 mph 1025.3mb 51f 47f
10:40pm 9ft  -  6s 29 36 mph 1025.2mb 51f 47f
10:30pm  -   -   -  29 38 mph 1025.1mb 51f 47f
10:20pm  -   -   -  29 38 mph 1025.1mb 51f 47f
10:10pm  -   -   -  29 38 mph 1025.1mb 51f 47f
10:00pm  -   -   -  31 40 mph 1024.8mb 51f 47f
9:50pm 10ft 10s 6s 34 43 mph 1024.8mb 51f 47f
9:40pm  -   -   -  34 40 mph 1024.8mb 50f 48f
9:30pm  -   -   -  31 40 mph 1024.7mb 50f 48f
9:20pm  -   -   -  31 40 mph 1024.6mb 50f 48f
9:10pm  -   -   -  34 43 mph 1024.5mb 50f 48f
9:00pm  -   -   -  34 43 mph 1024.2mb 50f 48f
8:50pm 11ft 8s 6s 34 43 mph 1024mb 50f 48f
8:40pm 11ft  -  6s 34 45 mph 1024mb 50f 48f
8:30pm  -   -   -  34 43 mph 1023.9mb - 48f
8:20pm  -   -   -  31 40 mph 1023.8mb 50f 48f
8:10pm  -   -   -  36 47 mph 1023.7mb 51f 48f
8:00pm  -   -   -  34 43 mph 1023.6mb 51f 48f
7:50pm 10ft 8s 6s 36 45 mph 1023.6mb 51f 48f
7:40pm 10ft  -  6s 34 45 mph 1023.6mb 51f 48f
7:30pm  -   -   -  31 40 mph 1023.6mb 51f 48f
7:20pm  -   -   -  34 43 mph 1023.5mb 51f 48f
7:10pm  -   -   -  34 40 mph 1023.4mb 51f 48f
7:00pm  -   -   -  34 43 mph 1023.2mb 51f 48f
6:50pm 10ft 8s 6s 34 43 mph 1023.1mb - 48f
6:40pm 10ft  -  6s 34 40 mph 1023mb 51f 48f
6:30pm  -   -   -  34 43 mph 1022.9mb 51f 48f
6:20pm  -   -   -  34 43 mph 1022.8mb 51f 48f
6:10pm  -   -   -  34 40 mph 1022.8mb 51f 48f
6:00pm  -   -   -  34 40 mph 1022.8mb 51f 48f
5:50pm 9ft 8s 6s 36 43 mph 1022.6mb 51f 48f
5:40pm 9ft  -  6s 36 45 mph 1022.6mb 51f 49f
5:30pm  -   -   -  36 45 mph 1022.4mb 51f 49f
5:20pm  -   -   -  34 40 mph 1022.6mb - 49f
5:10pm  -   -   -  31 40 mph 1022.5mb 51f 49f
5:00pm  -   -   -  31 38 mph 1022.6mb 51f 49f
4:50pm 8.5ft 8s 6s 31 38 mph 1022.6mb 51f 48f
4:40pm 8.5ft  -  6s 31 38 mph 1022.5mb 51f 48f
4:30pm  -   -   -  29 36 mph 1022.5mb 51f 48f
4:20pm  -   -   -  31 38 mph 1022.7mb 51f 48f
4:10pm  -   -   -  31 38 mph 1022.7mb 51f 48f
4:00pm  -   -   -  29 36 mph 1022.7mb 51f 48f
3:50pm 7.5ft 8s 5s 31 38 mph 1022.9mb 51f 48f
3:40pm 7.5ft  -  5s 31 36 mph 1022.9mb 51f 48f
3:30pm  -   -   -  29 36 mph 1023mb 51f 48f
3:20pm  -   -   -  27 36 mph 1023.1mb 51f 48f
3:10pm  -   -   -  29 36 mph 1023.1mb 51f -
3:00pm  -   -   -  29 34 mph 1023.3mb 51f 48f
2:50pm 6.5ft 14s 6s 27 34 mph 1023.4mb 51f 48f
2:40pm 6.5ft  -  6s 29 36 mph 1023.3mb 51f 48f
2:30pm  -   -   -  29 36 mph 1023.2mb 51f 47f
2:20pm  -   -   -  29 36 mph 1023.5mb 51f 47f
2:10pm  -   -   -  29 36 mph 1023.8mb - 48f
2:00pm  -   -   -  22 27 mph 1023.7mb 51f 48f
1:50pm 6ft 13s 6s 20 25 mph 1023.8mb 51f 48f
1:40pm  -   -   -  22 27 mph 1024mb 51f 48f
1:30pm  -   -   -  25 29 mph 1024mb 51f 48f
1:20pm  -   -   -  22 27 mph 1024mb 51f 48f
1:10pm  -   -   -  22 29 mph 1024.2mb 51f 47f
1:00pm  -   -   -  25 36 mph 1024.5mb 51f 48f
12:50pm 6ft 14s 6s 27 36 mph 1024.3mb 51f 49f
12:40pm 6ft  -  6s 25 31 mph 1024.3mb 51f 50f
12:30pm  -   -   -  25 31 mph 1024.4mb 51f 50f
12:20pm  -   -   -  22 27 mph 1024.5mb 51f 49f
12:10pm  -   -   -  20 27 mph 1024.8mb 51f 49f
12:00pm  -   -   -  20 25 mph 1024.9mb 51f 49f
11:50am 6ft 14s 6s 18 22 mph 1025mb 51f 49f
11:40am  -   -   -  20 27 mph 1025.1mb 51f 48f
11:30am  -   -   -  18 22 mph 1025.3mb 51f 48f
11:20am  -   -   -  20 25 mph 1025.4mb 51f 48f
11:10am  -   -   -  20 27 mph 1025.3mb 51f 49f
11:00am  -   -   -  20 29 mph 1025.2mb 51f 49f
10:50am 7ft 13s 6s 18 22 mph 1025.3mb 51f 48f
10:40am 7ft  -  6s 18 25 mph 1025.3mb 51f 48f
10:30am  -   -   -  18 22 mph 1025.5mb 51f -
10:20am  -   -   -  18 22 mph 1025.3mb 51f 48f
10:10am  -   -   -  18 25 mph 1025.3mb 51f 48f
10:00am  -   -   -  18 25 mph 1025.2mb 51f 48f
9:50am 7ft 14s 6s 18 22 mph 1025.2mb 51f 48f
9:40am 7ft  -  6s 18 22 mph 1025.1mb 51f 48f
9:30am  -   -   -  16 20 mph 1025.1mb 51f 48f
9:20am  -   -   -  18 20 mph 1025.1mb 51f 48f
9:10am  -   -   -  18 22 mph 1025mb 51f 48f
9:00am  -   -   -  18 22 mph 1024.9mb 51f 47f
8:50am 7.5ft 14s 6s 18 22 mph 1025.1mb 51f 47f
8:40am 7.5ft  -  6s 20 25 mph 1025mb - 47f
8:30am  -   -   -  20 27 mph 1025mb 51f 47f
8:20am  -   -   -  22 29 mph 1025.1mb 51f 47f
8:10am  -   -   -  25 29 mph 1025.1mb 51f 47f
8:00am  -   -   -  25 29 mph 1025mb 51f -
7:50am 8ft 9s 6s 25 31 mph 1024.7mb 51f 47f
7:40am 8ft  -  6s 27 34 mph 1024.5mb 51f 47f
7:30am  -   -   -  27 31 mph 1024.4mb 51f 47f
7:20am  -   -   -  27 31 mph 1024.2mb 51f 47f
7:10am  -   -   -  29 34 mph 1024.2mb 51f 47f
7:00am  -   -   -  27 34 mph 1024mb 51f 47f
6:50am 8.5ft 14s 6s 29 36 mph 1023.9mb - 47f
6:40am 8.5ft  -  6s 29 36 mph 1023.8mb 51f 47f
6:30am  -   -   -  29 34 mph 1023.7mb 51f 47f
6:20am  -   -   -  29 36 mph 1023.6mb 51f 47f
6:10am  -   -   -  29 36 mph 1023.6mb 51f 47f
6:00am  -   -   -  29 36 mph 1023.5mb - 47f
5:50am 9ft 14s 6s 29 38 mph 1023.4mb 51f 47f
5:40am 9ft  -  6s 29 36 mph 1023.1mb 51f 47f
5:30am  -   -   -  27 34 mph 1023mb 51f 47f
5:20am  -   -   -  29 38 mph 1023mb 51f 47f
5:10am  -   -   -  29 38 mph 1022.8mb 51f 47f
5:00am  -   -   -  27 34 mph 1022.7mb 51f -
4:50am 9ft 7s 6s 29 36 mph 1022.5mb 51f 48f
4:40am 9ft  -  6s 29 36 mph 1022.5mb 51f 48f
4:30am  -   -   -  29 38 mph 1022.5mb 51f 48f
4:20am  -   -   -  29 36 mph 1022.5mb 51f 47f
4:10am  -   -   -  27 36 mph 1022.6mb 51f 48f
4:00am  -   -   -  29 36 mph 1022.7mb 51f 48f
3:50am 8.5ft 8s 6s 29 36 mph 1022.8mb 51f 48f
3:40am 8.5ft  -  6s 27 34 mph 1022.8mb 51f 48f
3:30am  -   -   -  27 34 mph 1022.8mb 51f 48f
3:20am  -   -   -  29 38 mph 1022.7mb - 48f
3:10am  -   -   -  27 34 mph 1022.7mb - 48f
3:00am  -   -   -  27 36 mph 1022.6mb 51f 48f
2:50am 7.5ft 14s 6s 27 34 mph 1022.8mb 51f 49f
2:40am 7.5ft  -  6s 29 36 mph 1022.9mb 51f 48f
2:30am  -   -   -  27 34 mph 1023mb 51f 48f
2:20am  -   -   -  27 36 mph 1023.1mb 51f 48f
2:10am  -   -   -  29 36 mph 1023.1mb 51f 49f
2:00am  -   -   -  27 31 mph 1023.2mb 51f 49f
1:50am 7.5ft 9s 6s 25 31 mph 1023.1mb 51f 49f
1:40am 7.5ft  -  6s 25 31 mph 1023.1mb 51f 49f
1:30am  -   -   -  25 31 mph 1023.1mb 51f 49f
1:20am  -   -   -  25 29 mph 1023.1mb 51f 49f
1:10am  -   -   -  25 29 mph 1023.1mb 51f 49f
1:00am  -   -   -  25 29 mph 1023.1mb 51f 49f
12:50am 6.5ft 14s 6s 25 29 mph 1023.1mb - 49f
12:40am 6.5ft  -  6s 25 31 mph 1023.2mb 51f 49f
12:30am  -   -   -  22 29 mph 1023.2mb 51f 49f
12:20am  -   -   -  22 27 mph 1023.2mb 51f 49f
12:10am  -   -   -  22 27 mph 1023.2mb 51f 49f
12:00am  -   -   -  22 27 mph 1023.3mb 51f 49f
Wed 02/21 11:50pm 6.5ft 9s 6s 22 29 mph 1023.2mb 51f 49f
11:40pm  -   -   -  22 27 mph 1023.3mb 51f 49f
11:30pm  -   -   -  22 27 mph 1023.2mb 51f 49f
11:20pm  -   -   -  22 27 mph 1023.2mb 51f 49f
11:10pm  -   -   -  22 29 mph 1023.2mb - 49f
11:00pm  -   -   -  22 27 mph 1023.2mb - 49f
10:50pm 6ft 14s 6s 22 27 mph 1023.2mb 51f 49f
10:40pm 6ft  -  6s 25 29 mph 1023.2mb 51f 49f
10:30pm  -   -   -  22 29 mph 1023.2mb 51f 49f
10:20pm  -   -   -  22 29 mph 1023.2mb 51f 49f
10:10pm  -   -   -  25 29 mph 1023.3mb 51f 49f
10:00pm  -   -   -  25 29 mph 1023.3mb 51f 49f
9:50pm 7ft 9s 6s 22 29 mph 1023.3mb 51f 49f
9:40pm 7ft  -  6s 20 25 mph 1023.1mb 51f 49f
9:30pm  -   -   -  20 25 mph 1023.1mb 51f 49f
9:20pm  -   -   -  20 25 mph 1023.1mb 51f 49f
9:10pm  -   -   -  20 25 mph 1023.1mb - 49f
9:00pm  -   -   -  20 25 mph 1022.9mb 51f 49f
8:50pm 6ft 9s 6s 20 25 mph 1022.9mb 51f 49f
8:40pm 6ft  -  6s 20 27 mph 1022.8mb 51f 49f
8:30pm  -   -   -  20 27 mph 1022.8mb - 49f
8:20pm  -   -   -  20 25 mph 1022.8mb 51f 50f
8:10pm  -   -   -  22 27 mph 1022.9mb 51f 49f
8:00pm  -   -   -  22 27 mph 1022.9mb 51f 49f
7:50pm 6ft 14s 6s 20 25 mph 1022.9mb 51f 49f
7:40pm  -   -   -  20 25 mph 1022.9mb 51f 49f
7:30pm  -   -   -  20 25 mph 1023mb - 49f
7:20pm  -   -   -  20 25 mph 1022.9mb 51f 49f
7:10pm  -   -   -  20 22 mph 1023.1mb - 49f
7:00pm  -   -   -  20 25 mph 1023mb 51f 49f
6:50pm 5.5ft 9s 6s 20 22 mph 1022.9mb 51f 49f
6:40pm 5.5ft  -  6s 18 22 mph 1022.9mb 51f 49f
6:30pm  -   -   -  18 22 mph 1022.9mb 51f 50f
6:20pm  -   -   -  16 22 mph 1022.8mb 51f 50f
6:10pm  -   -   -  16 18 mph 1022.8mb 51f 49f
6:00pm  -   -   -  13 18 mph 1022.7mb 51f 49f
5:50pm 6ft 9s 7s 16 18 mph 1022.6mb 52f 49f
5:40pm 6ft  -  7s 16 20 mph 1022.7mb 51f 50f
5:30pm  -   -   -  16 20 mph 1022.7mb 51f 50f
5:20pm  -   -   -  16 18 mph 1022.6mb 51f 50f
5:10pm  -   -   -  16 22 mph 1022.7mb 52f 50f
5:00pm  -   -   -  16 18 mph 1022.7mb 52f 50f
4:50pm 5.5ft 15s 8s 16 20 mph 1022.7mb - 50f
4:40pm 5.5ft  -  8s 16 18 mph 1022.8mb 52f 50f
4:30pm  -   -   -  13 18 mph 1022.7mb 52f 50f
4:20pm  -   -   -  11 16 mph 1022.6mb 52f 50f
4:10pm  -   -   -  11 13 mph 1022.6mb - 50f
4:00pm  -   -   -  9 13 mph 1022.7mb 52f 50f
3:50pm 5ft 15s 8s 9 11 mph 1022.9mb 52f 50f
3:40pm 5ft  -  8s 9 11 mph 1022.8mb 52f 49f